sensor_id;sensor_type;location;lat;lon;timestamp;temperature;humidity
39019;DHT22;24786;51.984;5.872;2023-05-02T00:01:28;11.80;99.90
39019;DHT22;24786;51.984;5.872;2023-05-02T00:03:54;11.80;99.90
39019;DHT22;24786;51.984;5.872;2023-05-02T00:06:19;11.80;99.90
39019;DHT22;24786;51.984;5.872;2023-05-02T00:08:45;11.80;99.90
39019;DHT22;24786;51.984;5.872;2023-05-02T00:11:10;11.80;99.90
39019;DHT22;24786;51.984;5.872;2023-05-02T00:13:36;11.80;99.90
39019;DHT22;24786;51.984;5.872;2023-05-02T00:16:01;11.80;99.90
39019;DHT22;24786;51.984;5.872;2023-05-02T00:18:27;11.80;99.90
39019;DHT22;24786;51.984;5.872;2023-05-02T00:20:52;11.70;99.90
39019;DHT22;24786;51.984;5.872;2023-05-02T00:23:17;11.70;99.90
39019;DHT22;24786;51.984;5.872;2023-05-02T00:25:46;11.70;99.90
39019;DHT22;24786;51.984;5.872;2023-05-02T00:28:11;11.70;99.90
39019;DHT22;24786;51.984;5.872;2023-05-02T00:30:41;11.60;99.90
39019;DHT22;24786;51.984;5.872;2023-05-02T00:33:07;11.70;99.90
39019;DHT22;24786;51.984;5.872;2023-05-02T00:35:32;11.70;99.90
39019;DHT22;24786;51.984;5.872;2023-05-02T00:37:58;11.60;99.90
39019;DHT22;24786;51.984;5.872;2023-05-02T00:40:23;11.60;99.90
39019;DHT22;24786;51.984;5.872;2023-05-02T00:42:49;11.60;99.90
39019;DHT22;24786;51.984;5.872;2023-05-02T00:45:14;11.60;99.90
39019;DHT22;24786;51.984;5.872;2023-05-02T00:47:40;11.60;99.90
39019;DHT22;24786;51.984;5.872;2023-05-02T00:50:05;11.50;99.90
39019;DHT22;24786;51.984;5.872;2023-05-02T00:52:31;11.50;99.90
39019;DHT22;24786;51.984;5.872;2023-05-02T00:54:57;11.50;99.90
39019;DHT22;24786;51.984;5.872;2023-05-02T00:57:22;11.50;99.90
39019;DHT22;24786;51.984;5.872;2023-05-02T00:59:48;11.50;99.90
39019;DHT22;24786;51.984;5.872;2023-05-02T01:02:24;11.50;99.90
39019;DHT22;24786;51.984;5.872;2023-05-02T01:04:57;11.50;99.90
39019;DHT22;24786;51.984;5.872;2023-05-02T01:07:34;11.60;99.90
39019;DHT22;24786;51.984;5.872;2023-05-02T01:12:51;11.50;99.90
39019;DHT22;24786;51.984;5.872;2023-05-02T01:15:20;11.60;99.90
39019;DHT22;24786;51.984;5.872;2023-05-02T01:17:46;11.50;99.90
39019;DHT22;24786;51.984;5.872;2023-05-02T01:20:13;11.60;99.90
39019;DHT22;24786;51.984;5.872;2023-05-02T01:22:40;11.60;99.90
39019;DHT22;24786;51.984;5.872;2023-05-02T01:27:53;11.60;99.90
39019;DHT22;24786;51.984;5.872;2023-05-02T01:30:20;11.60;99.90
39019;DHT22;24786;51.984;5.872;2023-05-02T01:32:47;11.60;99.90
39019;DHT22;24786;51.984;5.872;2023-05-02T01:35:13;11.60;99.90
39019;DHT22;24786;51.984;5.872;2023-05-02T01:37:40;11.60;99.90
39019;DHT22;24786;51.984;5.872;2023-05-02T01:40:07;11.60;99.90
39019;DHT22;24786;51.984;5.872;2023-05-02T01:42:33;11.50;99.90
39019;DHT22;24786;51.984;5.872;2023-05-02T01:45:00;11.50;99.90
39019;DHT22;24786;51.984;5.872;2023-05-02T01:47:28;11.50;99.90
39019;DHT22;24786;51.984;5.872;2023-05-02T01:49:56;11.50;99.90
39019;DHT22;24786;51.984;5.872;2023-05-02T01:52:22;11.50;99.90
39019;DHT22;24786;51.984;5.872;2023-05-02T01:54:49;11.50;99.90
39019;DHT22;24786;51.984;5.872;2023-05-02T01:57:15;11.50;99.90
39019;DHT22;24786;51.984;5.872;2023-05-02T01:59:41;11.50;99.90
39019;DHT22;24786;51.984;5.872;2023-05-02T02:02:07;11.50;99.90
39019;DHT22;24786;51.984;5.872;2023-05-02T02:04:34;11.50;99.90
39019;DHT22;24786;51.984;5.872;2023-05-02T02:07:03;11.40;99.90
39019;DHT22;24786;51.984;5.872;2023-05-02T02:09:30;11.40;99.90
39019;DHT22;24786;51.984;5.872;2023-05-02T02:12:14;11.50;99.90
39019;DHT22;24786;51.984;5.872;2023-05-02T02:14:45;11.40;99.90
39019;DHT22;24786;51.984;5.872;2023-05-02T02:17:14;11.40;99.90
39019;DHT22;24786;51.984;5.872;2023-05-02T02:19:41;11.50;99.90
39019;DHT22;24786;51.984;5.872;2023-05-02T02:22:07;11.40;99.90
39019;DHT22;24786;51.984;5.872;2023-05-02T02:24:33;11.40;99.90
39019;DHT22;24786;51.984;5.872;2023-05-02T02:27:00;11.40;99.90
39019;DHT22;24786;51.984;5.872;2023-05-02T02:29:26;11.40;99.90
39019;DHT22;24786;51.984;5.872;2023-05-02T02:31:52;11.40;99.90
39019;DHT22;24786;51.984;5.872;2023-05-02T02:34:18;11.30;99.90
39019;DHT22;24786;51.984;5.872;2023-05-02T02:36:50;11.30;99.90
39019;DHT22;24786;51.984;5.872;2023-05-02T02:41:59;11.30;99.90
39019;DHT22;24786;51.984;5.872;2023-05-02T02:44:28;11.30;99.90
39019;DHT22;24786;51.984;5.872;2023-05-02T02:47:08;11.20;99.90
39019;DHT22;24786;51.984;5.872;2023-05-02T02:49:43;11.10;99.90
39019;DHT22;24786;51.984;5.872;2023-05-02T02:52:23;11.10;99.90
39019;DHT22;24786;51.984;5.872;2023-05-02T03:00:00;10.90;99.90
39019;DHT22;24786;51.984;5.872;2023-05-02T03:02:30;10.90;99.90
39019;DHT22;24786;51.984;5.872;2023-05-02T03:04:56;10.80;99.90
39019;DHT22;24786;51.984;5.872;2023-05-02T03:07:22;10.80;99.90
39019;DHT22;24786;51.984;5.872;2023-05-02T03:09:47;10.70;99.90
39019;DHT22;24786;51.984;5.872;2023-05-02T03:12:13;10.70;99.90
39019;DHT22;24786;51.984;5.872;2023-05-02T03:14:39;10.70;99.90
39019;DHT22;24786;51.984;5.872;2023-05-02T03:17:05;10.70;99.90
39019;DHT22;24786;51.984;5.872;2023-05-02T03:19:32;10.70;99.90
39019;DHT22;24786;51.984;5.872;2023-05-02T03:21:58;10.70;99.90
39019;DHT22;24786;51.984;5.872;2023-05-02T03:24:23;10.70;99.90
39019;DHT22;24786;51.984;5.872;2023-05-02T03:26:49;10.70;99.90
39019;DHT22;24786;51.984;5.872;2023-05-02T03:29:14;10.60;99.90
39019;DHT22;24786;51.984;5.872;2023-05-02T03:31:40;10.60;99.90
39019;DHT22;24786;51.984;5.872;2023-05-02T03:34:05;10.60;99.90
39019;DHT22;24786;51.984;5.872;2023-05-02T03:36:31;10.60;99.90
39019;DHT22;24786;51.984;5.872;2023-05-02T03:38:56;10.50;99.90
39019;DHT22;24786;51.984;5.872;2023-05-02T03:41:22;10.50;99.90
39019;DHT22;24786;51.984;5.872;2023-05-02T03:43:49;10.50;99.90
39019;DHT22;24786;51.984;5.872;2023-05-02T03:46:15;10.50;99.90
39019;DHT22;24786;51.984;5.872;2023-05-02T03:48:40;10.40;99.90
39019;DHT22;24786;51.984;5.872;2023-05-02T03:51:06;10.40;99.90
39019;DHT22;24786;51.984;5.872;2023-05-02T03:53:34;10.40;99.90
39019;DHT22;24786;51.984;5.872;2023-05-02T03:56:00;10.40;99.90
39019;DHT22;24786;51.984;5.872;2023-05-02T03:58:25;10.40;99.90
39019;DHT22;24786;51.984;5.872;2023-05-02T04:00:51;10.40;99.90
39019;DHT22;24786;51.984;5.872;2023-05-02T04:03:20;10.40;99.90
39019;DHT22;24786;51.984;5.872;2023-05-02T04:05:45;10.40;99.90
39019;DHT22;24786;51.984;5.872;2023-05-02T04:08:11;10.40;99.90
39019;DHT22;24786;51.984;5.872;2023-05-02T04:10:37;10.40;99.90
39019;DHT22;24786;51.984;5.872;2023-05-02T04:13:03;10.40;99.90
39019;DHT22;24786;51.984;5.872;2023-05-02T04:15:29;10.30;99.90
39019;DHT22;24786;51.984;5.872;2023-05-02T04:17:56;10.30;99.90
39019;DHT22;24786;51.984;5.872;2023-05-02T04:20:21;10.30;99.90
39019;DHT22;24786;51.984;5.872;2023-05-02T04:22:47;10.30;99.90
39019;DHT22;24786;51.984;5.872;2023-05-02T04:25:14;10.30;99.90
39019;DHT22;24786;51.984;5.872;2023-05-02T04:27:39;10.30;99.90
39019;DHT22;24786;51.984;5.872;2023-05-02T04:30:05;10.30;99.90
39019;DHT22;24786;51.984;5.872;2023-05-02T04:32:31;10.40;99.90
39019;DHT22;24786;51.984;5.872;2023-05-02T04:34:56;10.40;99.90
39019;DHT22;24786;51.984;5.872;2023-05-02T04:37:21;10.40;99.90
39019;DHT22;24786;51.984;5.872;2023-05-02T04:39:47;10.40;99.90
39019;DHT22;24786;51.984;5.872;2023-05-02T04:42:12;10.40;99.90
39019;DHT22;24786;51.984;5.872;2023-05-02T04:44:38;10.40;99.90
39019;DHT22;24786;51.984;5.872;2023-05-02T04:47:03;10.40;99.90
39019;DHT22;24786;51.984;5.872;2023-05-02T04:49:29;10.40;99.90
39019;DHT22;24786;51.984;5.872;2023-05-02T04:51:55;10.40;99.90
39019;DHT22;24786;51.984;5.872;2023-05-02T04:54:20;10.40;99.90
39019;DHT22;24786;51.984;5.872;2023-05-02T04:56:46;10.40;99.90
39019;DHT22;24786;51.984;5.872;2023-05-02T04:59:11;10.50;99.90
39019;DHT22;24786;51.984;5.872;2023-05-02T05:01:37;10.50;99.90
39019;DHT22;24786;51.984;5.872;2023-05-02T05:04:02;10.50;99.90
39019;DHT22;24786;51.984;5.872;2023-05-02T05:06:28;10.50;99.90
39019;DHT22;24786;51.984;5.872;2023-05-02T05:08:53;10.50;99.90
39019;DHT22;24786;51.984;5.872;2023-05-02T05:11:19;10.50;99.90
39019;DHT22;24786;51.984;5.872;2023-05-02T05:13:44;10.50;99.90
39019;DHT22;24786;51.984;5.872;2023-05-02T05:16:10;10.50;99.90
39019;DHT22;24786;51.984;5.872;2023-05-02T05:18:36;10.40;99.90
39019;DHT22;24786;51.984;5.872;2023-05-02T05:21:08;10.40;99.90
39019;DHT22;24786;51.984;5.872;2023-05-02T05:23:34;10.40;99.90
39019;DHT22;24786;51.984;5.872;2023-05-02T05:26:09;10.40;99.90
39019;DHT22;24786;51.984;5.872;2023-05-02T05:28:35;10.50;99.90
39019;DHT22;24786;51.984;5.872;2023-05-02T05:31:07;10.40;99.90
39019;DHT22;24786;51.984;5.872;2023-05-02T05:33:33;10.40;99.90
39019;DHT22;24786;51.984;5.872;2023-05-02T05:36:11;10.50;99.90
39019;DHT22;24786;51.984;5.872;2023-05-02T05:38:37;10.50;99.90
39019;DHT22;24786;51.984;5.872;2023-05-02T05:41:03;10.50;99.90
39019;DHT22;24786;51.984;5.872;2023-05-02T05:43:29;10.40;99.90
39019;DHT22;24786;51.984;5.872;2023-05-02T05:45:55;10.40;99.90
39019;DHT22;24786;51.984;5.872;2023-05-02T05:48:21;10.40;99.90
39019;DHT22;24786;51.984;5.872;2023-05-02T05:50:46;10.40;99.90
39019;DHT22;24786;51.984;5.872;2023-05-02T05:53:12;10.40;99.90
39019;DHT22;24786;51.984;5.872;2023-05-02T05:55:38;10.40;99.90
39019;DHT22;24786;51.984;5.872;2023-05-02T05:58:04;10.50;99.90
39019;DHT22;24786;51.984;5.872;2023-05-02T06:00:29;10.50;99.90
39019;DHT22;24786;51.984;5.872;2023-05-02T06:02:55;10.50;99.90
39019;DHT22;24786;51.984;5.872;2023-05-02T06:05:20;10.60;99.90
39019;DHT22;24786;51.984;5.872;2023-05-02T06:07:46;10.50;99.90
39019;DHT22;24786;51.984;5.872;2023-05-02T06:10:11;10.60;99.90
39019;DHT22;24786;51.984;5.872;2023-05-02T06:12:37;10.50;99.90
39019;DHT22;24786;51.984;5.872;2023-05-02T06:15:02;10.50;99.90
39019;DHT22;24786;51.984;5.872;2023-05-02T06:17:28;10.50;99.90
39019;DHT22;24786;51.984;5.872;2023-05-02T06:19:53;10.40;99.90
39019;DHT22;24786;51.984;5.872;2023-05-02T06:22:19;10.40;99.90
39019;DHT22;24786;51.984;5.872;2023-05-02T06:24:44;10.40;99.90
39019;DHT22;24786;51.984;5.872;2023-05-02T06:27:10;10.50;99.90
39019;DHT22;24786;51.984;5.872;2023-05-02T06:29:35;10.40;99.90
39019;DHT22;24786;51.984;5.872;2023-05-02T06:32:01;10.40;99.90
39019;DHT22;24786;51.984;5.872;2023-05-02T06:34:26;10.40;99.90
39019;DHT22;24786;51.984;5.872;2023-05-02T06:36:54;10.50;99.90
39019;DHT22;24786;51.984;5.872;2023-05-02T06:39:23;10.50;99.90
39019;DHT22;24786;51.984;5.872;2023-05-02T06:41:49;10.50;99.90
39019;DHT22;24786;51.984;5.872;2023-05-02T06:44:14;10.50;99.90
39019;DHT22;24786;51.984;5.872;2023-05-02T06:46:40;10.60;99.90
39019;DHT22;24786;51.984;5.872;2023-05-02T06:49:05;10.60;99.90
39019;DHT22;24786;51.984;5.872;2023-05-02T06:51:31;10.60;99.90
39019;DHT22;24786;51.984;5.872;2023-05-02T06:53:57;10.70;99.90
39019;DHT22;24786;51.984;5.872;2023-05-02T06:56:23;10.70;99.90
39019;DHT22;24786;51.984;5.872;2023-05-02T06:58:50;10.70;99.90
39019;DHT22;24786;51.984;5.872;2023-05-02T07:01:15;10.80;99.90
39019;DHT22;24786;51.984;5.872;2023-05-02T07:03:41;10.80;99.90
39019;DHT22;24786;51.984;5.872;2023-05-02T07:06:06;10.90;99.90
39019;DHT22;24786;51.984;5.872;2023-05-02T07:08:32;10.90;99.90
39019;DHT22;24786;51.984;5.872;2023-05-02T07:10:57;11.00;99.90
39019;DHT22;24786;51.984;5.872;2023-05-02T07:13:22;11.10;99.90
39019;DHT22;24786;51.984;5.872;2023-05-02T07:15:48;11.10;99.90
39019;DHT22;24786;51.984;5.872;2023-05-02T07:18:13;11.10;99.90
39019;DHT22;24786;51.984;5.872;2023-05-02T07:20:39;11.10;99.90
39019;DHT22;24786;51.984;5.872;2023-05-02T07:23:06;11.20;99.90
39019;DHT22;24786;51.984;5.872;2023-05-02T07:25:33;11.20;99.90
39019;DHT22;24786;51.984;5.872;2023-05-02T07:27:58;11.20;99.90
39019;DHT22;24786;51.984;5.872;2023-05-02T07:30:24;11.20;99.90
39019;DHT22;24786;51.984;5.872;2023-05-02T07:32:49;11.20;99.90
39019;DHT22;24786;51.984;5.872;2023-05-02T07:35:15;11.30;99.90
39019;DHT22;24786;51.984;5.872;2023-05-02T07:37:40;11.30;99.90
39019;DHT22;24786;51.984;5.872;2023-05-02T07:40:06;11.30;99.90
39019;DHT22;24786;51.984;5.872;2023-05-02T07:42:32;11.30;99.90
39019;DHT22;24786;51.984;5.872;2023-05-02T07:44:58;11.40;99.90
39019;DHT22;24786;51.984;5.872;2023-05-02T07:47:23;11.40;99.90
39019;DHT22;24786;51.984;5.872;2023-05-02T07:49:54;11.40;99.90
39019;DHT22;24786;51.984;5.872;2023-05-02T07:52:20;11.40;99.90
39019;DHT22;24786;51.984;5.872;2023-05-02T07:54:46;11.30;99.90
39019;DHT22;24786;51.984;5.872;2023-05-02T07:57:12;11.20;99.90
39019;DHT22;24786;51.984;5.872;2023-05-02T07:59:37;11.10;99.90
39019;DHT22;24786;51.984;5.872;2023-05-02T08:02:03;11.10;99.90
39019;DHT22;24786;51.984;5.872;2023-05-02T08:04:29;11.10;99.90
39019;DHT22;24786;51.984;5.872;2023-05-02T08:06:54;11.00;99.90
39019;DHT22;24786;51.984;5.872;2023-05-02T08:09:20;11.10;99.90
39019;DHT22;24786;51.984;5.872;2023-05-02T08:11:45;10.90;99.90
39019;DHT22;24786;51.984;5.872;2023-05-02T08:14:11;10.80;99.90
39019;DHT22;24786;51.984;5.872;2023-05-02T08:16:37;10.70;99.90
39019;DHT22;24786;51.984;5.872;2023-05-02T08:19:02;10.70;99.90
39019;DHT22;24786;51.984;5.872;2023-05-02T08:21:28;10.70;99.90
39019;DHT22;24786;51.984;5.872;2023-05-02T08:23:56;10.80;99.90
39019;DHT22;24786;51.984;5.872;2023-05-02T08:26:21;10.90;99.90
39019;DHT22;24786;51.984;5.872;2023-05-02T08:28:52;11.00;99.90
39019;DHT22;24786;51.984;5.872;2023-05-02T08:31:17;11.10;99.90
39019;DHT22;24786;51.984;5.872;2023-05-02T08:33:43;11.10;99.90
39019;DHT22;24786;51.984;5.872;2023-05-02T08:36:10;11.20;99.90
39019;DHT22;24786;51.984;5.872;2023-05-02T08:38:35;11.30;99.90
39019;DHT22;24786;51.984;5.872;2023-05-02T08:41:01;11.40;99.90
39019;DHT22;24786;51.984;5.872;2023-05-02T08:43:26;11.50;99.90
39019;DHT22;24786;51.984;5.872;2023-05-02T08:45:52;11.60;99.90
39019;DHT22;24786;51.984;5.872;2023-05-02T08:48:18;11.70;99.90
39019;DHT22;24786;51.984;5.872;2023-05-02T08:50:44;11.70;99.90
39019;DHT22;24786;51.984;5.872;2023-05-02T08:53:12;11.90;99.90
39019;DHT22;24786;51.984;5.872;2023-05-02T08:55:39;12.10;99.90
39019;DHT22;24786;51.984;5.872;2023-05-02T08:58:05;12.40;99.90
39019;DHT22;24786;51.984;5.872;2023-05-02T09:00:31;12.40;99.90
39019;DHT22;24786;51.984;5.872;2023-05-02T09:05:41;12.50;99.90
39019;DHT22;24786;51.984;5.872;2023-05-02T09:08:07;12.40;99.90
39019;DHT22;24786;51.984;5.872;2023-05-02T09:10:35;12.40;99.90
39019;DHT22;24786;51.984;5.872;2023-05-02T09:15:55;12.30;99.90
39019;DHT22;24786;51.984;5.872;2023-05-02T09:18:21;12.20;99.90
39019;DHT22;24786;51.984;5.872;2023-05-02T09:20:47;12.30;99.90
39019;DHT22;24786;51.984;5.872;2023-05-02T09:23:13;12.30;99.90
39019;DHT22;24786;51.984;5.872;2023-05-02T09:25:38;12.20;99.90
39019;DHT22;24786;51.984;5.872;2023-05-02T09:28:04;12.20;99.90
39019;DHT22;24786;51.984;5.872;2023-05-02T09:30:29;12.20;99.90
39019;DHT22;24786;51.984;5.872;2023-05-02T09:32:55;12.20;99.90
39019;DHT22;24786;51.984;5.872;2023-05-02T09:35:21;12.20;99.90
39019;DHT22;24786;51.984;5.872;2023-05-02T09:37:54;12.30;99.90
39019;DHT22;24786;51.984;5.872;2023-05-02T09:40:19;12.30;99.90
39019;DHT22;24786;51.984;5.872;2023-05-02T09:42:45;12.20;99.90
39019;DHT22;24786;51.984;5.872;2023-05-02T09:45:21;12.20;99.90
39019;DHT22;24786;51.984;5.872;2023-05-02T09:47:47;12.30;99.90
39019;DHT22;24786;51.984;5.872;2023-05-02T09:50:30;12.60;99.90
39019;DHT22;24786;51.984;5.872;2023-05-02T09:55:47;12.70;99.90
39019;DHT22;24786;51.984;5.872;2023-05-02T09:58:20;12.70;99.90
39019;DHT22;24786;51.984;5.872;2023-05-02T10:00:46;12.60;99.90
39019;DHT22;24786;51.984;5.872;2023-05-02T10:03:14;12.50;99.90
39019;DHT22;24786;51.984;5.872;2023-05-02T10:05:40;12.60;99.90
39019;DHT22;24786;51.984;5.872;2023-05-02T10:08:06;13.00;99.90
39019;DHT22;24786;51.984;5.872;2023-05-02T10:10:32;13.10;99.80
39019;DHT22;24786;51.984;5.872;2023-05-02T10:13:00;13.30;98.60
39019;DHT22;24786;51.984;5.872;2023-05-02T10:15:27;13.30;99.00
39019;DHT22;24786;51.984;5.872;2023-05-02T10:17:55;13.30;99.00
39019;DHT22;24786;51.984;5.872;2023-05-02T10:20:22;13.20;98.20
39019;DHT22;24786;51.984;5.872;2023-05-02T10:22:49;13.10;98.60
39019;DHT22;24786;51.984;5.872;2023-05-02T10:25:15;13.10;98.70
39019;DHT22;24786;51.984;5.872;2023-05-02T10:27:40;13.00;97.90
39019;DHT22;24786;51.984;5.872;2023-05-02T10:30:06;13.00;98.30
39019;DHT22;24786;51.984;5.872;2023-05-02T10:32:32;13.00;98.20
39019;DHT22;24786;51.984;5.872;2023-05-02T10:35:02;13.00;98.40
39019;DHT22;24786;51.984;5.872;2023-05-02T10:37:28;13.20;98.40
39019;DHT22;24786;51.984;5.872;2023-05-02T10:39:54;13.30;98.10
39019;DHT22;24786;51.984;5.872;2023-05-02T10:42:19;13.50;97.80
39019;DHT22;24786;51.984;5.872;2023-05-02T10:44:45;13.60;97.20
39019;DHT22;24786;51.984;5.872;2023-05-02T10:47:18;13.70;96.70
39019;DHT22;24786;51.984;5.872;2023-05-02T10:49:50;13.90;96.20
39019;DHT22;24786;51.984;5.872;2023-05-02T10:54:54;14.00;96.00
39019;DHT22;24786;51.984;5.872;2023-05-02T10:58:09;13.80;95.30
39019;DHT22;24786;51.984;5.872;2023-05-02T11:00:28;13.80;94.60
39019;DHT22;24786;51.984;5.872;2023-05-02T11:02:54;13.70;94.80
39019;DHT22;24786;51.984;5.872;2023-05-02T11:05:20;13.60;94.50
39019;DHT22;24786;51.984;5.872;2023-05-02T11:07:46;13.70;94.20
39019;DHT22;24786;51.984;5.872;2023-05-02T11:12:47;14.10;93.60
39019;DHT22;24786;51.984;5.872;2023-05-02T11:18:01;14.30;93.80
39019;DHT22;24786;51.984;5.872;2023-05-02T11:20:28;14.20;93.80
39019;DHT22;24786;51.984;5.872;2023-05-02T11:22:54;13.90;94.30
39019;DHT22;24786;51.984;5.872;2023-05-02T11:25:27;13.70;94.20
39019;DHT22;24786;51.984;5.872;2023-05-02T11:27:53;13.90;94.00
39019;DHT22;24786;51.984;5.872;2023-05-02T11:30:35;14.00;93.60
39019;DHT22;24786;51.984;5.872;2023-05-02T11:35:29;14.20;93.20
39019;DHT22;24786;51.984;5.872;2023-05-02T11:37:56;14.30;92.90
39019;DHT22;24786;51.984;5.872;2023-05-02T11:40:22;14.20;92.80
39019;DHT22;24786;51.984;5.872;2023-05-02T11:42:48;14.30;93.20
39019;DHT22;24786;51.984;5.872;2023-05-02T11:45:13;14.40;92.70
39019;DHT22;24786;51.984;5.872;2023-05-02T11:47:39;14.20;92.60
39019;DHT22;24786;51.984;5.872;2023-05-02T11:50:05;14.20;92.60
39019;DHT22;24786;51.984;5.872;2023-05-02T11:52:36;14.30;92.40
39019;DHT22;24786;51.984;5.872;2023-05-02T11:55:01;14.40;92.30
39019;DHT22;24786;51.984;5.872;2023-05-02T11:57:27;14.60;92.50
39019;DHT22;24786;51.984;5.872;2023-05-02T11:59:53;14.70;92.10
39019;DHT22;24786;51.984;5.872;2023-05-02T12:02:19;14.90;92.40
39019;DHT22;24786;51.984;5.872;2023-05-02T12:04:45;15.00;91.90
39019;DHT22;24786;51.984;5.872;2023-05-02T12:07:11;15.10;91.90
39019;DHT22;24786;51.984;5.872;2023-05-02T12:09:48;15.20;91.20
39019;DHT22;24786;51.984;5.872;2023-05-02T12:12:18;15.10;91.10
39019;DHT22;24786;51.984;5.872;2023-05-02T12:14:43;15.10;90.60
39019;DHT22;24786;51.984;5.872;2023-05-02T12:17:08;15.10;90.00
39019;DHT22;24786;51.984;5.872;2023-05-02T12:19:34;15.20;90.70
39019;DHT22;24786;51.984;5.872;2023-05-02T12:22:02;15.20;90.80
39019;DHT22;24786;51.984;5.872;2023-05-02T12:24:27;15.30;90.70
39019;DHT22;24786;51.984;5.872;2023-05-02T12:27:13;15.50;90.70
39019;DHT22;24786;51.984;5.872;2023-05-02T12:32:04;15.80;89.40
39019;DHT22;24786;51.984;5.872;2023-05-02T12:34:30;15.60;89.70
39019;DHT22;24786;51.984;5.872;2023-05-02T12:36:56;15.30;88.20
39019;DHT22;24786;51.984;5.872;2023-05-02T12:39:32;15.00;89.20
39019;DHT22;24786;51.984;5.872;2023-05-02T12:41:58;14.70;87.00
39019;DHT22;24786;51.984;5.872;2023-05-02T12:44:36;14.70;88.50
39019;DHT22;24786;51.984;5.872;2023-05-02T12:47:05;14.90;88.50
39019;DHT22;24786;51.984;5.872;2023-05-02T12:49:32;15.00;87.60
39019;DHT22;24786;51.984;5.872;2023-05-02T12:51:57;15.20;87.70
39019;DHT22;24786;51.984;5.872;2023-05-02T12:54:23;15.30;86.90
39019;DHT22;24786;51.984;5.872;2023-05-02T12:56:50;15.50;86.50
39019;DHT22;24786;51.984;5.872;2023-05-02T12:59:29;15.60;84.80
39019;DHT22;24786;51.984;5.872;2023-05-02T13:01:55;15.30;84.50
39019;DHT22;24786;51.984;5.872;2023-05-02T13:04:20;15.10;85.70
39019;DHT22;24786;51.984;5.872;2023-05-02T13:06:46;15.10;86.30
39019;DHT22;24786;51.984;5.872;2023-05-02T13:09:11;14.90;86.80
39019;DHT22;24786;51.984;5.872;2023-05-02T13:11:37;14.70;85.70
39019;DHT22;24786;51.984;5.872;2023-05-02T13:14:03;14.70;86.70
39019;DHT22;24786;51.984;5.872;2023-05-02T13:16:30;14.90;87.40
39019;DHT22;24786;51.984;5.872;2023-05-02T13:18:55;15.10;87.20
39019;DHT22;24786;51.984;5.872;2023-05-02T13:21:21;15.20;87.20
39019;DHT22;24786;51.984;5.872;2023-05-02T13:23:47;15.40;85.90
39019;DHT22;24786;51.984;5.872;2023-05-02T13:26:14;15.30;85.50
39019;DHT22;24786;51.984;5.872;2023-05-02T13:28:40;15.40;85.80
39019;DHT22;24786;51.984;5.872;2023-05-02T13:31:06;15.40;85.10
39019;DHT22;24786;51.984;5.872;2023-05-02T13:33:31;15.40;85.00
39019;DHT22;24786;51.984;5.872;2023-05-02T13:35:57;15.50;85.10
39019;DHT22;24786;51.984;5.872;2023-05-02T13:38:22;15.50;85.50
39019;DHT22;24786;51.984;5.872;2023-05-02T13:40:48;15.70;85.20
39019;DHT22;24786;51.984;5.872;2023-05-02T13:43:13;15.60;85.10
39019;DHT22;24786;51.984;5.872;2023-05-02T13:45:39;15.70;84.80
39019;DHT22;24786;51.984;5.872;2023-05-02T13:48:05;15.70;83.40
39019;DHT22;24786;51.984;5.872;2023-05-02T13:50:30;15.70;81.20
39019;DHT22;24786;51.984;5.872;2023-05-02T13:52:56;15.60;81.80
39019;DHT22;24786;51.984;5.872;2023-05-02T13:55:21;15.50;82.20
39019;DHT22;24786;51.984;5.872;2023-05-02T13:57:47;15.50;82.60
39019;DHT22;24786;51.984;5.872;2023-05-02T14:00:12;15.50;82.50
39019;DHT22;24786;51.984;5.872;2023-05-02T14:02:38;15.50;83.20
39019;DHT22;24786;51.984;5.872;2023-05-02T14:05:03;15.70;83.60
39019;DHT22;24786;51.984;5.872;2023-05-02T14:07:29;15.70;83.90
39019;DHT22;24786;51.984;5.872;2023-05-02T14:09:55;15.70;81.70
39019;DHT22;24786;51.984;5.872;2023-05-02T14:12:20;15.70;82.10
39019;DHT22;24786;51.984;5.872;2023-05-02T14:14:45;15.70;82.60
39019;DHT22;24786;51.984;5.872;2023-05-02T14:17:11;15.70;82.50
39019;DHT22;24786;51.984;5.872;2023-05-02T14:19:37;15.70;82.60
39019;DHT22;24786;51.984;5.872;2023-05-02T14:22:02;15.70;82.50
39019;DHT22;24786;51.984;5.872;2023-05-02T14:24:27;15.80;82.50
39019;DHT22;24786;51.984;5.872;2023-05-02T14:26:53;15.80;82.70
39019;DHT22;24786;51.984;5.872;2023-05-02T14:29:18;15.70;83.10
39019;DHT22;24786;51.984;5.872;2023-05-02T14:31:44;15.60;83.10
39019;DHT22;24786;51.984;5.872;2023-05-02T14:34:10;15.70;83.30
39019;DHT22;24786;51.984;5.872;2023-05-02T14:36:35;15.60;83.60
39019;DHT22;24786;51.984;5.872;2023-05-02T14:39:01;15.80;83.10
39019;DHT22;24786;51.984;5.872;2023-05-02T14:41:26;15.80;82.00
39019;DHT22;24786;51.984;5.872;2023-05-02T14:43:52;15.80;82.40
39019;DHT22;24786;51.984;5.872;2023-05-02T14:46:17;15.80;82.30
39019;DHT22;24786;51.984;5.872;2023-05-02T14:48:43;15.70;82.00
39019;DHT22;24786;51.984;5.872;2023-05-02T14:51:08;15.60;82.50
39019;DHT22;24786;51.984;5.872;2023-05-02T14:53:34;15.50;81.50
39019;DHT22;24786;51.984;5.872;2023-05-02T14:55:59;15.60;81.70
39019;DHT22;24786;51.984;5.872;2023-05-02T14:58:25;15.50;82.20
39019;DHT22;24786;51.984;5.872;2023-05-02T15:00:50;15.60;80.40
39019;DHT22;24786;51.984;5.872;2023-05-02T15:03:16;15.50;81.30
39019;DHT22;24786;51.984;5.872;2023-05-02T15:05:42;15.60;81.10
39019;DHT22;24786;51.984;5.872;2023-05-02T15:08:07;15.60;81.20
39019;DHT22;24786;51.984;5.872;2023-05-02T15:10:36;15.50;81.30
39019;DHT22;24786;51.984;5.872;2023-05-02T15:13:01;15.50;81.30
39019;DHT22;24786;51.984;5.872;2023-05-02T15:15:28;15.50;81.50
39019;DHT22;24786;51.984;5.872;2023-05-02T15:17:54;15.60;81.70
39019;DHT22;24786;51.984;5.872;2023-05-02T15:20:19;15.50;81.60
39019;DHT22;24786;51.984;5.872;2023-05-02T15:22:45;15.60;81.60
39019;DHT22;24786;51.984;5.872;2023-05-02T15:25:10;15.50;80.60
39019;DHT22;24786;51.984;5.872;2023-05-02T15:27:36;15.40;79.50
39019;DHT22;24786;51.984;5.872;2023-05-02T15:30:01;15.30;80.60
39019;DHT22;24786;51.984;5.872;2023-05-02T15:32:27;15.30;80.90
39019;DHT22;24786;51.984;5.872;2023-05-02T15:34:53;15.30;81.10
39019;DHT22;24786;51.984;5.872;2023-05-02T15:37:19;15.30;81.50
39019;DHT22;24786;51.984;5.872;2023-05-02T15:39:44;15.30;80.80
39019;DHT22;24786;51.984;5.872;2023-05-02T15:42:10;15.30;81.50
39019;DHT22;24786;51.984;5.872;2023-05-02T15:44:35;15.30;81.80
39019;DHT22;24786;51.984;5.872;2023-05-02T15:47:02;15.20;81.90
39019;DHT22;24786;51.984;5.872;2023-05-02T15:49:27;15.20;81.70
39019;DHT22;24786;51.984;5.872;2023-05-02T15:52:00;15.10;80.10
39019;DHT22;24786;51.984;5.872;2023-05-02T15:54:25;15.00;81.20
39019;DHT22;24786;51.984;5.872;2023-05-02T15:56:51;15.00;81.50
39019;DHT22;24786;51.984;5.872;2023-05-02T15:59:16;14.90;81.60
39019;DHT22;24786;51.984;5.872;2023-05-02T16:01:42;14.80;81.80